Blanding, UT (84511)

11:57 PM MDT on August 30, 2014 (GMT -0600)
Blanding | Change Station
CLOSE
Current Station
Airport
Location: Blanding,
Elevation: 5866 ft
Nearby Weather Stations

Elev 5866 ft 37.58 °N, 109.48 °W | Updated 22 minutes ago

Clear
Clear
65 °F
Feels Like 65 °F
N
5
Wind Variable Wind from North

Today
High -- | Low -- °F
--% Chance of Precip.
Yesterday
High -- | Low -- °F
Precip. -- in
6:46 AM 7:49 PM
Waxing Crescent, 28% visible
Pressure 30.10 in
Visibility 10.0 miles
Clouds Clear
Dew Point 34 °F
Humidity 32%
Rainfall 0.00 in
Snow Depth Not available.
UV 0 out of 12
Pollen 8.90 out of 12
Air Quality Not available.
Flu Activity Not available.
METAR KBDG 310535Z AUTO 35004KT 10SM CLR 18/01 A3010 RMK AO1 T01830013

More Conditions Fewer Conditions

Pressure 30.10 in
Visibility 10.0 miles
Clouds Clear
Dew Point 34 °F
Humidity 32%
Rainfall 0.00 in
Snow Depth Not available.
UV 0 out of 12
Pollen 8.90 out of 12
Air Quality Not available.
Flu Activity Not available.
METAR KBDG 310535Z AUTO 35004KT 10SM CLR 18/01 A3010 RMK AO1 T01830013

More Conditions Fewer Conditions

10-Day Weather Forecast

Almanac

Astronomy

Aug. 30, 2014 Rise Set
Actual Time 6:46 AM MDT 7:49 PM MDT
Civil Twilight 6:19 AM MDT 8:16 PM MDT
Nautical Twilight 5:47 AM MDT 8:48 PM MDT
Astronomical Twilight 5:14 AM MDT 9:21 PM MDT
Moon 11:31 AM MDT (8/30) 10:32 PM MDT (8/30)
Length of Visible Light 13h 57m
Length of Day
13h 03m
Tomorrow will be 2m 18s shorter.
Waxing Crescent, 28% of the Moon is Illuminated
Aug 31
Waxing Crescent
Sep 2
First Quarter
Sep 8
Full
Sep 15
Last Quarter
Sep 24
New

Yesterday's Extremes

State Highs State Lows

Community

WunderPhotos

Upload Photos

1,748,790 photos uploaded!

Nearby

Snow Depth

Station Depth Elevation
Donkey Reservoir 0 in 9800 ft
Clayton Springs 0 in 10000 ft
Gooseberry R.S. 0 in 7920 ft
Pickle Keg 0 in 9600 ft
Box Creek 0 in 9800 ft

Earthquake Activity

City Distance Mag. Time & Date
No recent earthquake activity has been reported nearby.
Minimum magnitude displayed is 2.5.

Coastal Water Temperatures

Place Temperature
No Stations Reporting

Nearby Weather Stations